Time;durP1;ratioP1;P1;durP2;ratioP2;P2;SDS_P1;SDS_P2;PMS_P1;PMS_P2;Temp;Humidity;BMP_temperature;BMP_pressure;BME280_temperature;BME280_humidity;BME280_pressure;Samples;Min_cycle;Max_cycle;Signal;HPM_P1;HPM_P2
2021/01/26 00:01:14;;;;;;;3.60;2.30;;;;;;;4.97;92.56;98913.81;1735823;82;21021;-34
2021/01/26 00:03:42;;;;;;;7.95;2.45;;;;;;;5.00;92.71;98917.14;1735775;82;20900;-34
2021/01/26 00:06:12;;;;;;;5.28;2.17;;;;;;;5.06;92.95;98908.94;1735797;82;21193;-34
2021/01/26 00:08:39;;;;;;;9.45;2.62;;;;;;;5.11;92.65;98904.55;1735786;82;21011;-34
2021/01/26 00:11:08;;;;;;;6.42;2.20;;;;;;;5.11;92.65;98904.55;1735879;82;20988;-34
2021/01/26 00:13:40;;;;;;;5.03;2.15;;;;;;;5.16;92.63;98911.70;1735926;82;21014;-34
2021/01/26 00:16:10;;;;;;;10.55;3.22;;;;;;;5.20;92.71;98907.38;1732801;82;20999;-34
2021/01/26 00:18:40;;;;;;;9.55;3.15;;;;;;;5.22;92.53;98909.47;1735889;82;21271;-34
2021/01/26 00:21:09;;;;;;;10.28;2.35;;;;;;;5.23;92.40;98920.13;1735864;82;21115;-33
2021/01/26 00:23:37;;;;;;;9.53;2.40;;;;;;;5.23;92.40;98920.13;1735788;82;20971;-34
2021/01/26 00:26:05;;;;;;;8.05;2.45;;;;;;;5.24;92.08;98917.97;1735809;82;21000;-34
2021/01/26 00:28:34;;;;;;;9.55;1.90;;;;;;;5.23;91.89;98916.28;1744105;81;20876;-34
2021/01/26 00:31:07;;;;;;;7.20;2.25;;;;;;;5.20;91.03;98924.05;1749825;82;21206;-34
2021/01/26 00:33:35;;;;;;;8.73;2.37;;;;;;;5.22;89.91;98919.72;1749843;82;21019;-32
2021/01/26 00:36:09;;;;;;;2.42;2.15;;;;;;;5.25;89.35;98919.20;1749824;82;20920;-32
2021/01/26 00:38:37;;;;;;;8.33;3.77;;;;;;;5.22;88.67;98917.16;1749878;82;21545;-32
2021/01/26 00:41:05;;;;;;;6.92;4.10;;;;;;;5.14;88.46;98910.44;1749832;82;20919;-32
2021/01/26 00:43:34;;;;;;;4.53;4.20;;;;;;;5.05;88.25;98920.91;1749899;82;21358;-32
2021/01/26 00:46:03;;;;;;;7.65;4.42;;;;;;;4.95;88.06;98915.56;1749748;82;20891;-32
2021/01/26 00:48:32;;;;;;;6.20;3.98;;;;;;;4.90;88.18;98920.78;1749818;82;21007;-33
2021/01/26 00:51:00;;;;;;;10.25;4.87;;;;;;;4.82;88.37;98922.20;1749890;81;21022;-33
2021/01/26 00:53:29;;;;;;;47.40;6.08;;;;;;;4.77;88.61;98927.00;1749880;82;20960;-32
2021/01/26 00:55:59;;;;;;;17.23;6.10;;;;;;;4.67;89.28;98937.86;1748041;82;21213;-33
2021/01/26 00:58:27;;;;;;;7.35;6.20;;;;;;;4.67;89.28;98937.86;1749726;82;21228;-34
2021/01/26 01:00:56;;;;;;;14.28;6.62;;;;;;;4.62;88.90;98938.39;1749791;82;20944;-35
2021/01/26 01:03:24;;;;;;;24.55;6.03;;;;;;;4.55;88.88;98948.76;1749893;82;21152;-32
2021/01/26 01:05:52;;;;;;;21.12;5.50;;;;;;;4.46;88.24;98929.72;1749833;82;20924;-33
2021/01/26 01:08:20;;;;;;;17.60;5.87;;;;;;;4.47;88.30;98953.19;1749873;81;21370;-32
2021/01/26 01:10:48;;;;;;;13.20;5.08;;;;;;;4.44;88.30;98948.95;1749822;82;21011;-32
2021/01/26 01:13:16;;;;;;;41.48;5.90;;;;;;;4.41;88.08;98951.98;1698974;82;20979;-33
2021/01/26 01:15:44;;;;;;;8.98;5.58;;;;;;;4.39;88.11;98957.58;1749810;82;21007;-33
2021/01/26 01:18:15;;;;;;;5.75;5.25;;;;;;;4.31;88.33;98969.26;1749803;82;21035;-33
2021/01/26 01:20:43;;;;;;;3.85;3.50;;;;;;;4.24;87.47;98972.77;1749831;82;21361;-33
2021/01/26 01:23:11;;;;;;;2.25;2.10;;;;;;;4.24;87.47;98972.77;1749788;82;20936;-32
2021/01/26 01:25:40;;;;;;;3.87;2.05;;;;;;;4.12;86.46;98981.49;1749798;82;21003;-33
2021/01/26 01:28:14;;;;;;;1.60;1.50;;;;;;;3.97;86.32;98984.72;1745736;82;20983;-34
2021/01/26 01:30:42;;;;;;;5.55;1.60;;;;;;;3.87;86.00;98986.98;1735714;82;20992;-36
2021/01/26 01:33:11;;;;;;;1.60;1.50;;;;;;;3.81;86.18;98996.89;1735836;82;21286;-34
2021/01/26 01:35:40;;;;;;;2.90;1.27;;;;;;;3.76;86.49;98997.37;1735798;82;21494;-32
2021/01/26 01:38:10;;;;;;;1.20;1.20;;;;;;;3.62;86.94;98998.84;1715046;82;21003;-34
2021/01/26 01:40:39;;;;;;;1.35;1.25;;;;;;;3.54;87.29;98996.82;1734632;82;21027;-31
2021/01/26 01:43:50;;;;;;;2.77;1.10;;;;;;;3.48;87.79;99009.70;1777088;79;22756;-33
2021/01/26 01:46:23;;;;;;;1.10;0.80;;;;;;;3.33;87.80;99029.47;1749892;82;21331;-34
2021/01/26 01:48:53;;;;;;;2.87;0.60;;;;;;;3.19;86.92;99032.19;1749821;82;21157;-34
2021/01/26 01:51:23;;;;;;;3.08;0.78;;;;;;;3.11;85.59;99056.55;1749676;82;20971;-33
2021/01/26 01:53:55;;;;;;;0.80;0.80;;;;;;;2.99;84.39;99062.64;1749785;82;20960;-33
2021/01/26 01:57:10;;;;;;;0.80;0.80;;;;;;;2.93;83.91;99072.09;1749793;82;20953;-33
2021/01/26 01:59:45;;;;;;;1.52;0.93;;;;;;;2.84;84.16;99075.58;1749743;82;20923;-32
2021/01/26 02:02:13;;;;;;;1.22;1.05;;;;;;;2.77;83.08;99076.05;1749705;82;22258;-32
2021/01/26 02:04:51;;;;;;;1.10;1.07;;;;;;;2.72;82.78;99095.25;1749778;82;21553;-33
2021/01/26 02:07:14;;;;;;;0.95;0.90;;;;;;;2.67;82.35;99093.17;1748631;82;21027;-33
2021/01/26 02:09:41;;;;;;;7.17;1.00;;;;;;;2.64;82.58;99107.67;1749723;82;20987;-34
2021/01/26 02:12:11;;;;;;;5.55;0.90;;;;;;;2.59;82.28;99100.89;1749653;82;20931;-34
2021/01/26 02:14:46;;;;;;;90.65;3.47;;;;;;;2.51;81.83;99130.77;1749758;81;21197;-34
2021/01/26 02:17:45;;;;;;;4.37;0.60;;;;;;;2.56;81.91;99153.73;1749746;81;21034;-34
2021/01/26 02:20:49;;;;;;;6.33;0.50;;;;;;;2.27;82.85;99152.17;1749708;82;20924;-34
2021/01/26 02:23:28;;;;;;;3.70;0.68;;;;;;;1.89;84.20;99166.81;1749782;81;21558;-33
2021/01/26 02:26:36;;;;;;;0.50;0.50;;;;;;;1.69;85.24;99158.81;1749736;82;20893;-33
2021/01/26 02:29:08;;;;;;;1.57;0.70;;;;;;;1.48;85.90;99180.09;1730984;82;22100;-33
2021/01/26 02:32:06;;;;;;;4.45;0.93;;;;;;;1.37;86.49;99197.13;1749654;82;20959;-35
2021/01/26 02:35:19;;;;;;;0.90;0.78;;;;;;;1.34;86.67;99216.27;1749772;82;20919;-34
2021/01/26 02:38:13;;;;;;;0.70;0.60;;;;;;;1.28;86.95;99208.19;1720480;82;20990;-35
2021/01/26 02:41:01;;;;;;;0.70;0.70;;;;;;;1.23;87.03;99212.00;1749718;81;21023;-32
2021/01/26 02:44:16;;;;;;;2.20;0.50;;;;;;;1.23;87.11;99222.20;1743957;82;22179;-33
2021/01/26 02:46:53;;;;;;;1.07;0.75;;;;;;;1.13;86.90;99233.25;1750366;82;21124;-33
2021/01/26 02:49:44;;;;;;;1.62;0.50;;;;;;;1.06;86.80;99247.69;1750493;82;21002;-34
2021/01/26 02:52:34;;;;;;;0.68;0.68;;;;;;;0.96;87.05;99262.11;1750379;81;20967;-34
2021/01/26 02:55:40;;;;;;;1.15;0.90;;;;;;;0.95;87.02;99254.48;1749934;82;21016;-34
2021/01/26 02:58:20;;;;;;;0.60;0.60;;;;;;;0.82;87.34;99262.09;1749958;82;22727;-34
2021/01/26 03:00:48;;;;;;;0.85;0.85;;;;;;;0.74;87.59;99258.68;1749869;82;20955;-34
2021/01/26 03:03:26;;;;;;;0.90;0.90;;;;;;;0.73;87.75;99281.59;1749863;82;20999;-34
2021/01/26 03:06:02;;;;;;;0.90;0.90;;;;;;;0.72;87.89;99275.66;1749972;82;20920;-33
2021/01/26 03:08:38;;;;;;;1.07;1.07;;;;;;;0.68;88.06;99289.24;1750001;82;22401;-33
2021/01/26 03:11:27;;;;;;;1.00;1.00;;;;;;;0.64;88.27;99283.72;1749952;82;21376;-32
2021/01/26 03:14:12;;;;;;;1.57;1.47;;;;;;;0.71;87.91;99282.88;1749824;80;20935;-33
2021/01/26 03:16:50;;;;;;;1.95;1.30;;;;;;;0.68;88.08;99289.24;1749974;82;21022;-34
2021/01/26 03:19:16;;;;;;;1.57;1.47;;;;;;;0.65;88.23;99294.33;1747642;82;21010;-33
2021/01/26 03:21:48;;;;;;;1.90;1.80;;;;;;;0.69;87.94;99312.59;1749972;82;21019;-33
2021/01/26 03:24:23;;;;;;;1.90;1.80;;;;;;;0.68;88.06;99323.63;1750027;82;21142;-34
2021/01/26 03:26:51;;;;;;;2.12;2.02;;;;;;;0.68;88.10;99336.37;1749860;82;21011;-33
2021/01/26 03:29:28;;;;;;;3.02;2.67;;;;;;;0.64;87.94;99335.49;1749891;82;21023;-34
2021/01/26 03:31:55;;;;;;;3.40;3.10;;;;;;;0.63;88.05;99330.37;1749918;82;20908;-33
2021/01/26 03:34:23;;;;;;;2.95;2.42;;;;;;;0.68;87.93;99335.09;1749986;82;20928;-32
2021/01/26 03:37:00;;;;;;;3.65;3.00;;;;;;;0.68;87.99;99360.57;1749872;82;21206;-33
2021/01/26 03:39:41;;;;;;;;;;;;;;;;;;;;;
2021/01/26 03:42:05;;;;;;;3.80;3.30;;;;;;;0.67;88.05;99363.52;1748758;82;20927;-34
2021/01/26 03:44:33;;;;;;;3.50;3.20;;;;;;;0.68;88.04;99378.41;1749842;82;21100;-33
2021/01/26 03:47:17;;;;;;;6.12;3.98;;;;;;;0.73;87.78;99374.58;1749923;82;21525;-34
2021/01/26 03:50:25;;;;;;;6.85;4.40;;;;;;;0.75;87.59;99375.03;1749947;82;21404;-34
2021/01/26 03:53:22;;;;;;;4.47;3.25;;;;;;;0.80;87.21;99377.17;1749903;81;21034;-33
2021/01/26 03:56:06;;;;;;;5.20;4.70;;;;;;;0.85;86.80;99383.13;1749485;82;21006;-34
2021/01/26 03:59:01;;;;;;;7.95;5.85;;;;;;;0.93;86.08;99388.70;1746895;82;20927;-34
2021/01/26 04:01:46;;;;;;;5.90;4.95;;;;;;;0.96;85.35;99404.00;1749229;82;21054;-34
2021/01/26 04:04:20;;;;;;;6.50;5.47;;;;;;;1.00;85.22;99413.36;1750149;82;21399;-34
2021/01/26 04:06:55;;;;;;;9.38;5.92;;;;;;;1.05;84.44;99414.66;1749833;82;20935;-34
2021/01/26 04:09:26;;;;;;;6.33;5.27;;;;;;;1.08;83.76;99438.44;1750085;82;20983;-33
2021/01/26 04:11:58;;;;;;;17.05;7.25;;;;;;;1.13;83.33;99444.41;1723245;82;21002;-34
2021/01/26 04:14:58;;;;;;;9.38;6.83;;;;;;;1.22;81.89;99451.69;1722675;82;20912;-33
2021/01/26 04:17:34;;;;;;;12.10;7.80;;;;;;;1.26;81.29;99461.91;1750034;82;22098;-34
2021/01/26 04:22:55;;;;;;;11.60;7.78;;;;;;;1.35;79.68;99472.54;1890165;76;22571;-33
2021/01/26 04:25:38;;;;;;;11.45;8.10;;;;;;;1.37;78.93;99477.22;1850136;77;20907;-34
2021/01/26 04:28:14;;;;;;;13.15;8.60;;;;;;;1.36;78.73;99497.20;1823259;78;21150;-33
2021/01/26 04:30:42;;;;;;;14.53;8.93;;;;;;;1.38;78.71;99513.80;1823286;78;20920;-33
2021/01/26 04:33:14;;;;;;;109.25;10.65;;;;;;;1.35;78.92;99519.72;1823247;78;20978;-34
2021/01/26 04:35:42;;;;;;;18.35;9.10;;;;;;;1.38;77.94;99536.75;1823380;78;20873;-33
2021/01/26 04:38:11;;;;;;;12.95;8.63;;;;;;;1.39;76.90;99544.42;1823309;78;20972;-33
2021/01/26 04:40:39;;;;;;;13.80;8.73;;;;;;;1.39;77.25;99539.31;1823226;78;21202;-35
2021/01/26 04:43:27;;;;;;;13.13;8.63;;;;;;;1.36;77.64;99538.00;1823209;78;21087;-33
2021/01/26 04:46:40;;;;;;;12.63;8.40;;;;;;;1.34;77.80;99547.34;1823338;78;21047;-34
2021/01/26 04:49:20;;;;;;;16.40;8.75;;;;;;;1.36;77.61;99548.20;1823193;78;21008;-32
2021/01/26 04:52:20;;;;;;;19.00;9.28;;;;;;;1.35;77.32;99554.15;1823361;78;21011;-32
2021/01/26 04:55:08;;;;;;;16.80;9.25;;;;;;;1.34;77.24;99570.30;1784422;80;21276;-32
2021/01/26 04:57:52;;;;;;;18.12;8.78;;;;;;;1.30;77.23;99571.13;1790368;80;20967;-33
2021/01/26 05:00:33;;;;;;;18.00;9.45;;;;;;;1.28;77.06;99577.92;1785932;79;20989;-33
2021/01/26 05:03:25;;;;;;;13.60;9.43;;;;;;;1.24;76.57;99574.93;1794058;79;20935;-34
2021/01/26 05:06:02;;;;;;;13.13;8.35;;;;;;;1.26;76.58;99598.73;1798036;79;20903;-34
2021/01/26 05:08:35;;;;;;;14.55;6.30;;;;;;;1.27;76.68;99597.48;1798110;79;22110;-33
2021/01/26 05:11:17;;;;;;;15.08;9.13;;;;;;;1.28;76.12;99598.33;1797883;79;21413;-33
2021/01/26 05:14:01;;;;;;;27.87;8.85;;;;;;;1.30;75.82;99568.58;1812868;77;22683;-33
2021/01/26 05:16:53;;;;;;;13.65;9.33;;;;;;;1.34;75.03;99594.52;1779703;80;21034;-35
2021/01/26 05:19:40;;;;;;;11.63;8.48;;;;;;;1.29;74.98;99621.70;1784256;80;21357;-33
2021/01/26 05:22:26;;;;;;;10.10;7.22;;;;;;;1.31;75.43;99616.62;1784237;80;20939;-34
2021/01/26 05:25:12;;;;;;;15.25;8.53;;;;;;;1.26;75.44;99656.11;1784351;80;21018;-35
2021/01/26 05:27:40;;;;;;;12.90;8.35;;;;;;;1.27;74.37;99644.66;1784386;80;20983;-34
2021/01/26 05:30:28;;;;;;;10.80;7.92;;;;;;;1.24;74.44;99630.59;1784324;80;20988;-35
2021/01/26 05:33:09;;;;;;;16.77;8.30;;;;;;;1.21;74.60;99648.42;1784199;80;21460;-33
2021/01/26 05:35:42;;;;;;;14.78;8.20;;;;;;;1.15;74.84;99644.56;1784083;80;20979;-34
2021/01/26 05:38:09;;;;;;;23.20;8.78;;;;;;;1.08;74.32;99648.76;1784306;80;21419;-34
2021/01/26 05:40:40;;;;;;;13.35;8.28;;;;;;;1.03;74.31;99644.05;1784229;80;21003;-33
2021/01/26 05:43:10;;;;;;;14.23;9.53;;;;;;;0.96;75.04;99639.32;1784216;80;20963;-32
2021/01/26 05:45:42;;;;;;;10.28;7.75;;;;;;;0.83;75.28;99665.13;1730101;80;21378;-34
2021/01/26 05:48:15;;;;;;;15.65;7.92;;;;;;;0.71;75.51;99682.43;1784142;80;20920;-34
2021/01/26 05:50:43;;;;;;;12.20;8.33;;;;;;;0.67;76.02;99695.14;1784243;80;21050;-32
2021/01/26 05:53:28;;;;;;;13.53;8.80;;;;;;;0.60;76.06;99700.59;1784172;80;20983;-35
2021/01/26 05:56:14;;;;;;;12.40;8.08;;;;;;;0.62;76.00;99689.13;1784212;79;20999;-34
2021/01/26 05:58:46;;;;;;;11.12;7.75;;;;;;;0.57;76.21;99703.95;1784310;80;22407;-33
2021/01/26 06:01:28;;;;;;;11.18;8.25;;;;;;;0.50;76.46;99704.73;1784276;80;21049;-32
2021/01/26 06:04:12;;;;;;;14.10;7.70;;;;;;;0.47;76.62;99720.39;1784276;80;21034;-33
2021/01/26 06:06:54;;;;;;;15.85;8.55;;;;;;;0.42;77.18;99730.11;1784249;80;20935;-34
2021/01/26 06:09:41;;;;;;;13.48;8.75;;;;;;;0.38;77.43;99732.19;1784364;80;21479;-34
2021/01/26 06:12:22;;;;;;;9.43;6.12;;;;;;;0.29;77.96;99727.00;1783465;80;22366;-34
2021/01/26 06:15:12;;;;;;;14.47;9.28;;;;;;;0.25;78.29;99727.37;1776476;80;20927;-34
2021/01/26 06:17:41;;;;;;;12.10;8.00;;;;;;;0.16;78.91;99726.00;1773284;80;20983;-32
2021/01/26 06:20:24;;;;;;;12.18;9.00;;;;;;;0.08;79.75;99737.75;1776548;80;21103;-33
2021/01/26 06:23:18;;;;;;;11.97;7.83;;;;;;;0.05;79.99;99748.77;1776427;80;20991;-33
2021/01/26 06:26:07;;;;;;;11.68;7.87;;;;;;;0.06;80.27;99750.47;1775845;80;21356;-34
2021/01/26 06:28:57;;;;;;;15.05;9.05;;;;;;;0.07;80.60;99765.31;1775903;80;21010;-33
2021/01/26 06:31:42;;;;;;;12.73;8.78;;;;;;;0.08;80.80;99767.02;1775862;80;21058;-34
2021/01/26 06:34:58;;;;;;;12.10;8.45;;;;;;;0.11;80.89;99755.60;1776006;80;20896;-34
2021/01/26 06:37:52;;;;;;;12.50;8.35;;;;;;;0.12;81.12;99765.81;1775896;80;20970;-34
2021/01/26 06:40:41;;;;;;;15.32;9.03;;;;;;;0.12;81.21;99770.04;1760711;80;22740;-34
2021/01/26 06:43:30;;;;;;;14.05;8.43;;;;;;;0.17;81.48;99791.75;1775747;80;20994;-34
2021/01/26 06:46:28;;;;;;;11.33;7.92;;;;;;;0.22;81.42;99802.44;1775866;80;20983;-34
2021/01/26 06:49:15;;;;;;;12.18;8.38;;;;;;;0.30;81.28;99803.82;1774035;80;21046;-34
2021/01/26 06:51:57;;;;;;;10.32;7.42;;;;;;;0.36;81.03;99815.75;1775885;80;21042;-34
2021/01/26 06:54:33;;;;;;;11.78;7.55;;;;;;;0.40;80.90;99820.08;1752931;80;21420;-34
2021/01/26 06:57:13;;;;;;;10.10;7.17;;;;;;;0.46;80.85;99839.25;1775825;80;20927;-33
2021/01/26 07:00:41;;;;;;;9.35;6.92;;;;;;;0.52;80.81;99839.76;1851177;77;22701;-32
2021/01/26 07:03:38;;;;;;;13.05;8.08;;;;;;;0.50;80.75;99833.76;1820462;78;20974;-33
2021/01/26 07:06:44;;;;;;;10.10;7.42;;;;;;;0.56;80.07;99844.89;1823324;78;21355;-34
2021/01/26 07:09:52;;;;;;;11.60;7.87;;;;;;;0.64;79.78;99851.80;1823258;78;21034;-33
2021/01/26 07:12:57;;;;;;;13.62;7.83;;;;;;;0.71;79.38;99849.75;1823520;78;21529;-33
2021/01/26 07:15:36;;;;;;;8.15;6.22;;;;;;;0.74;78.89;99856.16;1823274;78;20914;-33
2021/01/26 07:18:54;;;;;;;10.13;7.03;;;;;;;0.83;78.67;99843.95;1817763;78;20994;-33
2021/01/26 07:21:33;;;;;;;9.73;6.33;;;;;;;0.86;78.33;99847.36;1784908;80;21201;-33
2021/01/26 07:24:49;;;;;;;;;;;;;;;;;;;;;
2021/01/26 07:27:31;;;;;;;6.85;5.47;;;;;;;1.03;77.36;99858.62;1847587;76;22740;-33
2021/01/26 07:30:08;;;;;;;7.28;5.55;;;;;;;1.05;77.27;99873.07;1818170;79;20962;-33
2021/01/26 07:33:06;;;;;;;16.35;5.78;;;;;;;1.10;77.13;99868.88;1818156;79;21208;-34
2021/01/26 07:36:00;;;;;;;8.48;5.58;;;;;;;1.17;77.03;99871.08;1818104;79;20903;-33
2021/01/26 07:38:36;;;;;;;11.57;6.05;;;;;;;1.27;76.09;99888.61;1818222;78;21427;-34
2021/01/26 07:41:13;;;;;;;10.10;6.28;;;;;;;1.35;75.10;99898.89;1818044;79;21014;-33
2021/01/26 07:43:45;;;;;;;6.97;5.35;;;;;;;1.38;75.63;99908.69;1818164;79;20971;-33
2021/01/26 07:46:25;;;;;;;7.65;5.42;;;;;;;1.44;75.06;99914.28;1787069;79;21195;-33
2021/01/26 07:49:22;;;;;;;10.30;5.65;;;;;;;1.53;74.72;99925.01;1818032;79;20891;-33
2021/01/26 07:51:57;;;;;;;9.00;5.83;;;;;;;1.58;74.54;99934.83;1818261;78;21077;-34
2021/01/26 07:54:45;;;;;;;7.90;5.53;;;;;;;1.60;73.95;99938.25;1818180;79;20911;-33
2021/01/26 07:57:15;;;;;;;9.33;5.90;;;;;;;1.67;73.73;99953.22;1818033;79;21521;-34
2021/01/26 07:59:50;;;;;;;7.40;5.20;;;;;;;1.68;73.89;99959.62;1818085;79;22788;-34
2021/01/26 08:02:31;;;;;;;6.60;5.23;;;;;;;1.66;73.39;99961.30;1785183;79;20974;-34
2021/01/26 08:05:00;;;;;;;8.85;5.22;;;;;;;1.66;73.30;99974.47;1817899;78;20967;-34
2021/01/26 08:07:30;;;;;;;6.95;5.05;;;;;;;1.66;72.99;99980.44;1761773;79;20958;-33
2021/01/26 08:10:00;;;;;;;5.55;4.60;;;;;;;1.70;72.95;99983.45;1818095;78;20982;-35
2021/01/26 08:12:36;;;;;;;14.73;8.48;;;;;;;1.75;73.39;99987.75;1818020;78;21195;-35
2021/01/26 08:15:33;;;;;;;5.83;4.22;;;;;;;1.78;73.30;99978.84;1818018;79;20926;-35
2021/01/26 08:18:27;;;;;;;6.37;4.47;;;;;;;1.86;72.59;99981.04;1818032;79;21490;-35
2021/01/26 08:20:55;;;;;;;5.08;4.53;;;;;;;1.95;72.77;99994.32;1786911;79;20915;-34
2021/01/26 08:23:27;;;;;;;5.55;4.03;;;;;;;2.03;72.98;99996.55;1818023;78;20903;-33
2021/01/26 08:25:55;;;;;;;6.55;4.08;;;;;;;2.10;72.34;100009.80;1822741;78;21357;-33
2021/01/26 08:28:51;;;;;;;4.90;3.75;;;;;;;2.14;72.75;100012.80;1833022;78;20914;-34
2021/01/26 08:31:38;;;;;;;7.00;4.22;;;;;;;2.24;71.84;100014.16;1813785;78;20974;-33
2021/01/26 08:34:25;;;;;;;6.30;4.47;;;;;;;2.33;72.49;100023.59;1813594;78;20915;-34
2021/01/26 08:37:17;;;;;;;5.03;4.00;;;;;;;2.41;72.11;100018.16;1805914;79;20900;-33
2021/01/26 08:39:54;;;;;;;4.35;3.90;;;;;;;2.50;72.08;100025.01;1760077;81;21020;-34
2021/01/26 08:42:49;;;;;;;8.43;3.98;;;;;;;2.63;71.47;100025.95;1793614;80;21476;-33
2021/01/26 08:45:33;;;;;;;4.35;3.62;;;;;;;2.75;71.69;100024.78;1762281;81;21132;-34
2021/01/26 08:48:06;;;;;;;4.83;4.28;;;;;;;2.90;70.66;100020.59;1812818;79;20971;-35
2021/01/26 08:50:46;;;;;;;5.62;3.77;;;;;;;2.99;70.29;100033.02;1793651;80;21067;-34
2021/01/26 08:53:30;;;;;;;6.78;3.90;;;;;;;3.11;68.98;100026.28;1807597;79;21375;-33
2021/01/26 08:56:06;;;;;;;5.15;3.47;;;;;;;3.16;69.52;100024.59;1793808;80;21579;-34
2021/01/26 08:58:57;;;;;;;10.70;5.95;;;;;;;3.21;68.52;100020.78;1752899;81;20925;-34
2021/01/26 09:01:37;;;;;;;6.25;3.58;;;;;;;3.27;68.38;100016.53;1785821;79;21053;-34
2021/01/26 09:04:20;;;;;;;4.12;3.62;;;;;;;3.34;67.65;100016.14;1793567;80;20918;-34
2021/01/26 09:06:48;;;;;;;4.67;3.62;;;;;;;3.32;67.11;100027.23;1812998;79;21347;-33
2021/01/26 09:09:35;;;;;;;4.08;3.67;;;;;;;3.35;67.61;100030.64;1793579;80;20946;-33
2021/01/26 09:12:05;;;;;;;3.40;3.10;;;;;;;3.38;66.93;100038.33;1812785;79;20957;-32
2021/01/26 09:14:50;;;;;;;5.17;2.92;;;;;;;3.39;66.12;100048.16;1793602;80;20913;-33
2021/01/26 09:17:27;;;;;;;4.22;3.77;;;;;;;3.29;66.60;100044.70;1812640;79;20982;-33
2021/01/26 09:20:01;;;;;;;5.33;4.40;;;;;;;3.27;65.48;100057.91;1767145;80;22091;-32
2021/01/26 09:22:30;;;;;;;5.05;3.65;;;;;;;3.18;65.52;100054.87;1812780;79;20908;-34
2021/01/26 09:25:26;;;;;;;5.47;3.70;;;;;;;3.12;66.42;100058.68;1793689;80;21041;-33
2021/01/26 09:28:01;;;;;;;4.10;3.50;;;;;;;3.06;67.25;100059.48;1817014;79;20876;-34
2021/01/26 09:30:37;;;;;;;4.72;3.65;;;;;;;3.10;68.04;100057.81;1817645;79;21916;-33
2021/01/26 09:33:14;;;;;;;4.40;3.33;;;;;;;3.11;67.80;100062.09;1815600;79;21208;-33
2021/01/26 09:35:50;;;;;;;6.45;3.70;;;;;;;3.12;68.38;100049.28;1817367;79;20935;-33
2021/01/26 09:38:45;;;;;;;7.75;3.85;;;;;;;3.22;68.47;100051.92;1817375;79;20923;-33
2021/01/26 09:41:23;;;;;;;4.55;3.67;;;;;;;3.27;68.59;100053.63;1817506;79;21422;-33
2021/01/26 09:43:54;;;;;;;9.60;3.90;;;;;;;3.37;68.62;100053.25;1817493;78;20987;-33
2021/01/26 09:46:37;;;;;;;4.95;3.42;;;;;;;3.45;68.47;100058.00;1817343;79;21357;-33
2021/01/26 09:49:27;;;;;;;4.90;3.58;;;;;;;3.49;67.95;100056.30;1817308;78;20923;-34
2021/01/26 09:52:10;;;;;;;4.75;3.55;;;;;;;3.55;67.83;100055.06;1788465;79;20869;-32
2021/01/26 09:54:42;;;;;;;4.45;4.03;;;;;;;3.65;67.77;100066.16;1816697;79;21013;-32
2021/01/26 09:57:14;;;;;;;9.13;3.83;;;;;;;3.70;66.84;100064.50;1817361;79;20982;-33
2021/01/26 09:59:44;;;;;;;4.15;3.67;;;;;;;3.72;67.16;100069.20;1817297;79;20990;-32
2021/01/26 10:02:15;;;;;;;8.85;3.65;;;;;;;3.79;67.25;100067.52;1817318;78;20915;-32
2021/01/26 10:04:43;;;;;;;4.50;3.77;;;;;;;3.87;66.97;100068.80;1817445;79;22299;-33
2021/01/26 10:07:14;;;;;;;5.12;3.77;;;;;;;4.03;66.90;100079.53;1813052;79;20994;-33
2021/01/26 10:09:42;;;;;;;6.00;3.83;;;;;;;4.03;66.90;100079.53;1817569;79;20959;-33
2021/01/26 10:12:35;;;;;;;4.70;3.85;;;;;;;4.14;66.60;100062.91;1788337;79;21449;-33
2021/01/26 10:15:28;;;;;;;5.70;3.87;;;;;;;4.29;65.73;100078.72;1817332;79;20966;-34
2021/01/26 10:18:23;;;;;;;6.87;3.77;;;;;;;4.74;66.48;100067.64;1817356;79;20979;-33
2021/01/26 10:20:55;;;;;;;3.30;3.00;;;;;;;4.74;66.48;100067.64;1817029;79;20935;-34
2021/01/26 10:23:43;;;;;;;4.75;3.40;;;;;;;4.96;66.45;100067.17;1817422;79;20923;-31
2021/01/26 10:26:22;;;;;;;9.10;3.47;;;;;;;5.18;66.31;100078.69;1816549;79;22443;-32
2021/01/26 10:29:14;;;;;;;7.35;4.40;;;;;;;5.30;65.13;100070.11;1812797;79;21208;-34
2021/01/26 10:31:48;;;;;;;4.50;3.98;;;;;;;5.25;64.18;100074.41;1800089;79;21006;-34
2021/01/26 10:34:34;;;;;;;11.90;4.30;;;;;;;5.02;64.44;100067.61;1813088;78;21528;-32
2021/01/26 10:37:32;;;;;;;4.33;3.20;;;;;;;4.74;64.83;100063.80;1793752;80;20961;-32
2021/01/26 10:40:19;;;;;;;4.45;3.60;;;;;;;4.55;66.17;100075.33;1812745;79;22242;-35
2021/01/26 10:43:09;;;;;;;21.85;3.70;;;;;;;4.55;66.17;100075.33;1760449;80;21551;-32
2021/01/26 10:45:52;;;;;;;5.20;3.67;;;;;;;4.50;66.62;100067.20;1793538;80;21445;-33
2021/01/26 10:48:35;;;;;;;6.10;4.28;;;;;;;4.30;66.76;100064.22;1812774;79;20923;-34
2021/01/26 10:51:26;;;;;;;3.98;3.65;;;;;;;4.30;66.76;100064.22;1793502;80;21409;-35
2021/01/26 10:53:55;;;;;;;5.75;3.90;;;;;;;4.21;67.67;100051.38;1725102;81;21386;-34
2021/01/26 10:56:23;;;;;;;7.15;3.55;;;;;;;4.20;67.98;100056.94;1812683;79;20888;-32
2021/01/26 10:58:50;;;;;;;6.83;3.60;;;;;;;4.22;67.73;100059.48;1762098;81;21013;-33
2021/01/26 11:01:20;;;;;;;4.33;3.50;;;;;;;4.12;67.96;100042.84;1793541;80;20973;-34
2021/01/26 11:03:50;;;;;;;4.97;3.52;;;;;;;4.11;67.75;100042.81;1812835;79;20998;-33
2021/01/26 11:06:19;;;;;;;6.03;3.60;;;;;;;4.07;68.04;100052.64;1793430;80;21192;-34
2021/01/26 11:08:47;;;;;;;7.53;3.95;;;;;;;4.00;67.62;100039.83;1812744;79;20963;-33
2021/01/26 11:11:19;;;;;;;6.90;4.40;;;;;;;3.92;67.77;100040.24;1793542;80;20981;-34
2021/01/26 11:13:47;;;;;;;4.12;3.72;;;;;;;3.92;68.60;100026.56;1760427;81;20997;-34
2021/01/26 11:16:15;;;;;;;5.55;3.33;;;;;;;3.92;68.60;100026.56;1793560;80;21001;-33
2021/01/26 11:18:43;;;;;;;6.70;4.30;;;;;;;3.94;68.43;100035.98;1812723;79;21341;-34
2021/01/26 11:21:11;;;;;;;7.85;3.95;;;;;;;3.99;68.40;100034.69;1793406;80;21004;-34
2021/01/26 11:23:40;;;;;;;5.83;3.50;;;;;;;3.99;68.40;100035.55;1812756;79;21002;-32
2021/01/26 11:26:10;;;;;;;6.40;4.50;;;;;;;3.93;68.33;100031.70;1793475;80;20934;-33
2021/01/26 11:28:38;;;;;;;5.60;3.85;;;;;;;3.93;68.33;100031.70;1809974;78;20995;-32
2021/01/26 11:31:06;;;;;;;6.08;4.10;;;;;;;3.93;68.61;100041.95;1809939;79;23078;-33
2021/01/26 11:33:36;;;;;;;7.60;4.22;;;;;;;3.88;68.38;100040.65;1809882;79;20927;-33
2021/01/26 11:36:07;;;;;;;6.15;4.10;;;;;;;3.86;68.82;100028.27;1809902;79;20876;-33
2021/01/26 11:38:35;;;;;;;8.63;4.17;;;;;;;3.86;69.10;100023.15;1809835;79;21426;-34
2021/01/26 11:41:04;;;;;;;3.90;3.60;;;;;;;3.88;68.88;100025.28;1809940;79;20959;-33
2021/01/26 11:43:33;;;;;;;5.37;3.87;;;;;;;3.86;68.17;100018.44;1809979;79;21135;-34
2021/01/26 11:46:02;;;;;;;4.62;3.60;;;;;;;3.90;68.29;100021.88;1809846;79;21514;-35
2021/01/26 11:48:31;;;;;;;8.45;3.75;;;;;;;3.92;68.08;100013.35;1809884;79;20971;-32
2021/01/26 11:51:01;;;;;;;4.50;3.72;;;;;;;3.92;68.10;100012.08;1809821;79;20991;-34
2021/01/26 11:53:28;;;;;;;5.37;3.62;;;;;;;3.88;67.01;100011.20;1809881;79;20907;-33
2021/01/26 11:55:58;;;;;;;6.00;3.87;;;;;;;3.83;67.47;100010.34;1809909;79;21190;-34
2021/01/26 11:58:28;;;;;;;3.70;2.90;;;;;;;3.80;67.02;100019.71;1809899;79;21054;-34
2021/01/26 12:00:56;;;;;;;8.45;3.02;;;;;;;3.80;66.61;100029.95;1809833;79;20904;-34
2021/01/26 12:03:24;;;;;;;5.72;2.95;;;;;;;3.74;66.85;100048.30;1809842;79;21418;-33
2021/01/26 12:05:53;;;;;;;14.18;3.08;;;;;;;3.65;66.62;100041.84;1809938;79;20959;-34
2021/01/26 12:08:21;;;;;;;4.50;2.52;;;;;;;3.58;67.11;100043.55;1809890;79;21464;-33
2021/01/26 12:10:51;;;;;;;3.00;2.60;;;;;;;3.55;67.90;100053.78;1809854;79;21011;-34
2021/01/26 12:13:19;;;;;;;6.78;3.20;;;;;;;3.51;68.00;100062.27;1810070;79;20991;-34
2021/01/26 12:15:48;;;;;;;2.80;2.58;;;;;;;3.49;68.25;100064.41;1810046;79;20955;-34
2021/01/26 12:18:17;;;;;;;7.65;2.42;;;;;;;3.49;68.52;100059.30;1809978;79;20967;-34
2021/01/26 12:20:46;;;;;;;8.08;3.00;;;;;;;3.49;68.62;100038.38;1810089;79;21301;-34
2021/01/26 12:23:16;;;;;;;2.92;2.30;;;;;;;3.45;68.94;100063.53;1809996;79;21018;-33
2021/01/26 12:25:46;;;;;;;2.87;2.67;;;;;;;3.41;69.35;100072.92;1809980;79;20994;-32
2021/01/26 12:28:14;;;;;;;6.80;2.60;;;;;;;3.37;69.78;100070.33;1815080;79;21018;-32
2021/01/26 12:30:41;;;;;;;4.35;2.92;;;;;;;3.37;70.09;100067.33;1818056;79;20924;-31
2021/01/26 12:33:11;;;;;;;2.90;2.70;;;;;;;3.37;70.38;100071.16;1817982;79;21359;-33
2021/01/26 12:35:41;;;;;;;2.47;2.25;;;;;;;3.35;70.79;100077.98;1817951;79;21006;-34